Lilly, PA (15938)

05:29 PM EST del 28 novembre 2014 (GMT -0500)
Portage Boro | Change Station
CLOSE
Current Station
Stazione meteo personale
Location: Portage, PA
Altitudine: 1690 ft
Stazioni meteo nelle vicinanze

Alt. 1690 ft 40.39 °N, 78.67 °W | Updated 26 seconds ago

Parzialmente nuvoloso
Parzialmente nuvoloso
22.3 °F
Sembra 22 °F
N
0.0
Vento Variabile Vento da SO
Gusts 0.0 mph

Oggi
Massima -- | Minima -- °F
--% Possibilità di precip.
Ieri
Massima -- | Minima -- °F
Precip. -- in
7:15 AM 4:49 PM
Luna crescente, 44% visible
Pressione 30.25 in
Visibilità 10.0 miglia
Nuvole Sereno
Raffreddamento del vento 22 °F
Punto di rugiada 9 °F
Umidità 56%
Piovosità 0.00 in
Spessore del manto nevoso Non disponibile.
Raggi UV 0 fuori da 12
Polline .10 fuori da 12
Qualità dell'aria Non disponibile.
Flu Activity Non disponibile.
METAR KJST 282154Z AUTO 26008KT 10SM CLR M06/M12 A3014 RMK AO2 SLP242 T10611122

More Conditions Fewer Conditions

Pressione 30.25 in
Visibilità 10.0 miglia
Nuvole Sereno
Raffreddamento del vento 22 °F
Punto di rugiada 9 °F
Umidità 56%
Piovosità 0.00 in
Spessore del manto nevoso Non disponibile.
Raggi UV 0 fuori da 12
Polline .10 fuori da 12
Qualità dell'aria Non disponibile.
Flu Activity Non disponibile.
METAR KJST 282154Z AUTO 26008KT 10SM CLR M06/M12 A3014 RMK AO2 SLP242 T10611122

More Conditions Fewer Conditions

10-Day Weather Forecast

Almanac

Astronomia

Nov. 28, 2014 Alba Tramonto
Ora attuale
Crepuscolo civile
Crepuscolo nautico
Crepuscolo astronomico
Luna
Estensione della luce visibile
Lunghezza del giorno
Tomorrow will be .
, % of the Moon is Illuminated

Gli estremi di oggi

State Highs State Lows

Community

WunderPhotos

Upload Photos

1,774,321 foto caricate!

WunderBlogs® & News

Nearby

Qualità dell'aria

  Qualità dell'aria Indice AQ Inquinante
Not available.

Profondità neve

Stazione Profondità Altitudine

Attività sismica

Città  Distanza Mag. Data & Ora
Minimo Magnitudo Mostrato è 2.5.

Temperature delle acque costiere

Località Temperatura

Stazioni meteo nelle vicinanze